Aérodrome :
LOGIN :

S'inscrire | Disclaimer

   EN    FR    IT 

 










Légende :    VFR   VFR Marginal   IFR   IFR Intensif   IFR Très Intensif
Visi : 
Plafond : 
>= 8 km
>= 3000ft
5 à 8 km
1000 à 3000 ft
1500m à 5 km
500 à 1000 ft
800 à 1500m
200 à 500 ft
< 800m
< 200 ft
Symboles :   Orages  Brouillard  Fortes neiges  Fortes précipitations  Vent > 20 kt
SIGMETs :   Divers  Orages  Givrage  Turbulence  Onde Orograph.  Cendres Volcan.






- Altitude de l'aérodrome : 100 ft
- Code IATA : DCI


LIED - Decimomannu Air Base

DERNIER METAR :
  • 020555Z 32002KT 9999 FEW030 07/05 Q1012

METARs EXPIRÉS :
  • 020455Z 33003KT 9999 SCT030 07/05 Q1012 RMK SCT VIS MIN 9999 WIND THR35 /////KT WIND THR17 01002KT BLU
  • 012055Z 01005KT 9999 FEW025 10/06 Q1011
  • 020355Z 04001KT 9999 FEW030 07/05 Q1011 RMK FEW VIS MIN 9999 WIND THR35 /////KT WIND THR17 10001KT BLU
  • 020255Z 30002KT 9999 FEW030 10/06 Q1011 RMK FEW VIS MIN 9999 WIND THR35 /////KT WIND THR17 26002KT BLU
  • 020155Z 10003KT 9999 FEW025 08/05 Q1012 RMK FEW VIS MIN 9999 WIND THR35 /////KT WIND THR17 01004KT BLU

TAF TAF LIED
Valide du 02 à 06h jusqu'au 02 à 15h UTC


020500Z 0206/0215 34005KT 9999 SCT050
BECMG 0210/0212 23008KT



MET'MAP, la Météo Aéronautique d'un coup d'oeil ! - Copyright ORBIFLY Décembre 2007 - Disclaimer

ORBIFLY MET'MAP TEAM :

Programmation & Développement : Alexandra Zaïnal
Sur une idée originale de : Baudouin d'Aumeries
Soutien technique & logistique : Manuel Goepfert
Assistance : Marc-Olivier Méhu




SOURCES & CREDITS :

   NOAA